Hovedside
METAR-TAF:

METAR-TAF

Lufthavner :

Lagos, Nigeria

breddegrad: 06-35N, lengdegrad: 003-20E, høyde over havet: 40 m

Gjeldene værobservasjon

Denne rapporten ble laget for 42 minutter siden, klokken 21:00 UTC
Vind 3 kt fra Sør
Temperatur 28°C
Luftfuktighet 84%
Trykk 1013 hPa
Sikt: 8000 m
Spredte skyer i en høyde av 1200 ft

METAR: DNMM 182100Z 17003KT 8000 SCT012 28/25 Q1013 NOSIG

Tid: 22:42 (21:42 UTC)

Varsel

Denne rapporten ble laget for 6 timer og 12 minutter siden, klokken 15:30 UTC
Varsel gyldig fra 18. klokken 18 UTC til 19. klokken 24 UTC
Vind 2 kt fra skiftende retning
Sikt: 6000 m
Midlertidig
fra 19. klokken 04 UTC til 19. klokken 08 UTC
Sikt: 5000 m
Sannsynlighet 30%
fra 19. klokken 05 UTC til 19. klokken 08 UTC
Sikt: 2500 m
Blir
fra 19. klokken 08 UTC til 19. klokken 10 UTC
Vind 8 kt fra Nord
Brutte skyer i en høyde av 1300 ft

TAF: DNMM 181530Z 1818/1924 VRB02KT 6000 NSC TEMPO 1904/1908 5000 BR/HZ PROB30 1905/1908 2500 BECMG 1908/1910 35008KT BKN013

Værobservasjoner og værvarsel for over 4000 flyplasser (METAR- og TAF-rapporter).

Tilgjengelige stasjoner er representert av de røde og gule prikkene på kartet.

Hold musepekeren over prikken for å se navnet på stasjonen.

Klikk så for å se værobservasjoner og -varsler.

For å forandre kartet kan du klikke på den grønne knappen med svart kryss for å zoome inn, på den grønne knappen med strek for å zoome ut, eller på de grønne pilene for å se tilstøtende kart.


METAR-TAF: